Time;durP1;ratioP1;P1;durP2;ratioP2;P2;SDS_P1;SDS_P2;PMS_P1;PMS_P2;Temp;Humidity;BMP_temperature;BMP_pressure;BME280_temperature;BME280_humidity;BME280_pressure;Samples;Min_cycle;Max_cycle;Signal;HPM_P1;HPM_P2
2024/01/30 00:00:23;;;;;;;;;;;;;;;15.93;61.35;100503.50;2088264;28;19929;-68
2024/01/30 00:01:24;;;;;;;;;;;;;;;15.94;61.25;100499.88;2089164;28;19924;-68
2024/01/30 00:02:26;;;;;;;;;;;;;;;15.94;61.23;100505.22;2088581;28;20456;-68
2024/01/30 00:03:27;;;;;;;;;;;;;;;15.93;61.22;100500.84;2087424;28;20000;-69
2024/01/30 00:04:29;;;;;;;;;;;;;;;15.95;61.14;100506.91;2089790;28;19925;-69
2024/01/30 00:05:30;;;;;;;;;;;;;;;15.92;61.26;100505.34;2088678;28;20023;-69
2024/01/30 00:06:31;;;;;;;;;;;;;;;15.93;61.15;100495.47;2090183;28;19925;-68
2024/01/30 00:07:32;;;;;;;;;;;;;;;15.94;61.17;100498.03;2087880;28;19944;-68
2024/01/30 00:08:34;;;;;;;;;;;;;;;15.93;61.18;100495.47;2088964;28;19925;-68
2024/01/30 00:09:35;;;;;;;;;;;;;;;15.94;61.23;100497.19;2088744;28;20418;-68
2024/01/30 00:10:37;;;;;;;;;;;;;;;15.93;61.14;100498.16;2089809;28;19929;-68
2024/01/30 00:11:38;;;;;;;;;;;;;;;15.94;61.16;100497.19;2089573;28;19928;-69
2024/01/30 00:12:39;;;;;;;;;;;;;;;15.92;61.05;100499.16;2086567;28;19981;-68
2024/01/30 00:13:40;;;;;;;;;;;;;;;15.93;61.07;100499.00;2087276;28;20034;-69
2024/01/30 00:14:43;;;;;;;;;;;;;;;15.93;61.05;100492.81;2089542;28;20474;-67
2024/01/30 00:15:45;;;;;;;;;;;;;;;15.92;61.16;100491.13;2089525;28;20388;-69
2024/01/30 00:16:46;;;;;;;;;;;;;;;15.94;61.13;100499.88;2088930;28;19929;-68
2024/01/30 00:17:47;;;;;;;;;;;;;;;15.93;61.13;100492.81;2088447;28;20387;-69
2024/01/30 00:18:49;;;;;;;;;;;;;;;15.94;61.07;100490.00;2090654;28;19992;-67
2024/01/30 00:19:50;;;;;;;;;;;;;;;15.92;61.15;100489.28;2089320;28;19947;-68
2024/01/30 00:20:51;;;;;;;;;;;;;;;15.93;60.85;100495.47;2088252;28;19932;-68
2024/01/30 00:21:52;;;;;;;;;;;;;;;15.91;61.09;100494.75;2087760;28;19975;-69
2024/01/30 00:22:54;;;;;;;;;;;;;;;15.92;61.00;100494.63;2091262;28;20583;-67
2024/01/30 00:23:55;;;;;;;;;;;;;;;15.91;61.07;100489.41;2089990;28;20639;-67
2024/01/30 00:24:55;;;;;;;;;;;;;;;15.91;61.00;100492.09;2090052;28;19932;-67
2024/01/30 00:25:57;;;;;;;;;;;;;;;15.90;61.06;100487.75;2089312;28;19964;-68
2024/01/30 00:26:58;;;;;;;;;;;;;;;15.88;61.17;100490.56;2091285;28;19979;-68
2024/01/30 00:28:00;;;;;;;;;;;;;;;15.91;61.06;100500.13;2088728;28;20341;-68
2024/01/30 00:29:01;;;;;;;;;;;;;;;15.89;61.20;100491.41;2089023;28;19933;-68
2024/01/30 00:30:02;;;;;;;;;;;;;;;15.88;61.20;100487.91;2087474;28;19939;-68
2024/01/30 00:31:05;;;;;;;;;;;;;;;15.88;61.09;100487.03;2091648;28;19924;-68
2024/01/30 00:32:07;;;;;;;;;;;;;;;15.86;61.15;100488.03;2089532;28;19924;-68
2024/01/30 00:33:08;;;;;;;;;;;;;;;15.86;61.14;100488.03;2089095;28;19968;-69
2024/01/30 00:34:08;;;;;;;;;;;;;;;15.82;61.32;100478.59;2075967;28;20659;-68
2024/01/30 00:35:11;;;;;;;;;;;;;;;15.88;61.05;100485.22;2088021;28;19967;-68
2024/01/30 00:36:11;;;;;;;;;;;;;;;15.88;61.04;100481.66;2089629;28;19960;-68
2024/01/30 00:37:13;;;;;;;;;;;;;;;15.86;61.16;100482.66;2089233;28;20422;-69
2024/01/30 00:38:14;;;;;;;;;;;;;;;15.89;61.06;100486.06;2091846;28;19959;-68
2024/01/30 00:39:16;;;;;;;;;;;;;;;15.88;61.15;100490.56;2087585;28;19924;-69
2024/01/30 00:40:17;;;;;;;;;;;;;;;15.88;61.09;100485.22;2089477;28;19932;-67
2024/01/30 00:41:19;;;;;;;;;;;;;;;15.89;61.09;100486.06;2089280;28;19936;-68
2024/01/30 00:42:21;;;;;;;;;;;;;;;15.84;61.13;100489.97;2089779;28;19929;-69
2024/01/30 00:43:21;;;;;;;;;;;;;;;15.85;60.95;100486.34;2077121;28;20964;-68
2024/01/30 00:44:23;;;;;;;;;;;;;;;15.85;61.12;100488.16;2086789;28;19924;-69
2024/01/30 00:45:24;;;;;;;;;;;;;;;15.88;61.09;100489.69;2088517;28;19928;-68
2024/01/30 00:46:27;;;;;;;;;;;;;;;15.85;61.07;100488.16;2086364;28;19928;-68
2024/01/30 00:47:29;;;;;;;;;;;;;;;15.84;61.05;100489.97;2090308;28;19960;-68
2024/01/30 00:48:30;;;;;;;;;;;;;;;15.85;61.09;100485.47;2089642;28;19928;-68
2024/01/30 00:49:31;;;;;;;;;;;;;;;15.85;61.08;100489.03;2089679;28;19929;-69
2024/01/30 00:50:32;;;;;;;;;;;;;;;15.81;61.15;100490.28;2087890;28;19935;-68
2024/01/30 00:51:34;;;;;;;;;;;;;;;15.84;61.01;100489.97;2088119;28;19928;-68
2024/01/30 00:52:35;;;;;;;;;;;;;;;15.84;61.04;100492.66;2089651;28;19936;-69
2024/01/30 00:53:36;;;;;;;;;;;;;;;15.83;61.16;100488.31;2088710;28;21669;-69
2024/01/30 00:54:37;;;;;;;;;;;;;;;15.81;60.99;100487.59;2088967;28;19933;-68
2024/01/30 00:55:38;;;;;;;;;;;;;;;15.82;61.06;100491.09;2088638;28;19924;-68
2024/01/30 00:56:39;;;;;;;;;;;;;;;15.80;61.20;100487.75;2087830;28;19940;-68
2024/01/30 00:57:41;;;;;;;;;;;;;;;15.82;61.15;100491.97;2092881;28;19950;-69
2024/01/30 00:58:41;;;;;;;;;;;;;;;15.82;61.04;100486.63;2086057;28;20347;-68
2024/01/30 00:59:43;;;;;;;;;;;;;;;15.82;61.07;100491.97;2091243;28;19935;-67
2024/01/30 01:00:44;;;;;;;;;;;;;;;15.83;61.04;100488.31;2088656;28;19967;-69
2024/01/30 01:01:47;;;;;;;;;;;;;;;15.78;61.14;100489.72;2072542;28;21519;-68
2024/01/30 01:02:48;;;;;;;;;;;;;;;15.83;61.04;100485.63;2087492;28;19939;-69
2024/01/30 01:03:49;;;;;;;;;;;;;;;15.79;61.03;100486.88;2088024;28;19955;-68
2024/01/30 01:04:50;;;;;;;;;;;;;;;15.81;61.09;100486.75;2089053;28;19936;-68
2024/01/30 01:05:52;;;;;;;;;;;;;;;15.80;61.09;100483.25;2090110;28;19935;-68
2024/01/30 01:06:52;;;;;;;;;;;;;;;15.81;61.18;100486.75;2089232;28;20541;-68
2024/01/30 01:07:54;;;;;;;;;;;;;;;15.80;61.06;100485.06;2088606;28;19929;-68
2024/01/30 01:08:55;;;;;;;;;;;;;;;15.80;61.01;100487.75;2089469;28;19932;-69
2024/01/30 01:09:57;;;;;;;;;;;;;;;15.81;61.05;100486.75;2085903;28;19928;-68
2024/01/30 01:10:57;;;;;;;;;;;;;;;15.78;61.16;100487.88;2090633;28;19991;-67
2024/01/30 01:11:59;;;;;;;;;;;;;;;15.79;61.11;100486.88;2089158;28;19929;-68
2024/01/30 01:13:00;;;;;;;;;;;;;;;15.78;60.95;100479.84;2087852;28;19983;-68
2024/01/30 01:14:02;;;;;;;;;;;;;;;15.80;60.97;100493.09;2090113;28;19932;-68
2024/01/30 01:15:02;;;;;;;;;;;;;;;15.80;60.98;100483.25;2089754;28;19960;-67
2024/01/30 01:16:04;;;;;;;;;;;;;;;15.80;61.07;100488.59;2089719;28;20621;-68
2024/01/30 01:17:07;;;;;;;;;;;;;;;15.76;61.15;100492.50;2086997;28;19929;-68
2024/01/30 01:18:08;;;;;;;;;;;;;;;15.78;60.91;100487.88;2076864;28;20545;-68
2024/01/30 01:19:09;;;;;;;;;;;;;;;15.78;61.00;100487.03;2081587;28;20242;-68
2024/01/30 01:20:11;;;;;;;;;;;;;;;15.79;61.02;100486.88;2085193;28;19928;-68
2024/01/30 01:21:12;;;;;;;;;;;;;;;15.77;61.05;100483.53;2088507;28;19928;-68
2024/01/30 01:22:14;;;;;;;;;;;;;;;15.76;61.17;100479.13;2087989;28;20450;-68
2024/01/30 01:23:14;;;;;;;;;;;;;;;15.73;61.18;100484.78;2089141;28;21271;-68
2024/01/30 01:24:16;;;;;;;;;;;;;;;15.73;61.21;100482.09;2086504;28;19940;-68
2024/01/30 01:25:17;;;;;;;;;;;;;;;15.73;61.16;100476.75;2086523;28;19952;-68
2024/01/30 01:26:19;;;;;;;;;;;;;;;15.74;61.10;100480.25;2090094;28;19924;-68
2024/01/30 01:27:19;;;;;;;;;;;;;;;15.73;61.11;100476.75;2086664;28;19928;-68
2024/01/30 01:28:21;;;;;;;;;;;;;;;15.72;61.16;100477.75;2088737;28;19932;-69
2024/01/30 01:29:28;;;;;;;;;;;;;;;15.73;61.01;100475.91;2086307;28;19933;-68
2024/01/30 01:30:30;;;;;;;;;;;;;;;15.74;61.05;100478.47;2086075;28;20410;-68
2024/01/30 01:31:31;;;;;;;;;;;;;;;15.72;61.09;100472.38;2083256;28;19959;-69
2024/01/30 01:32:34;;;;;;;;;;;;;;;15.75;60.97;100474.78;2084819;28;20387;-69
2024/01/30 01:33:36;;;;;;;;;;;;;;;15.75;60.92;100472.09;2088634;28;19968;-68
2024/01/30 01:34:38;;;;;;;;;;;;;;;15.75;60.96;100474.78;2086821;28;19931;-68
2024/01/30 01:35:39;;;;;;;;;;;;;;;15.74;61.13;100475.78;2087529;28;19939;-68
2024/01/30 01:36:41;;;;;;;;;;;;;;;15.74;61.01;100470.44;2084917;28;19964;-68
2024/01/30 01:37:42;;;;;;;;;;;;;;;15.74;60.91;100475.78;2086804;28;19932;-68
2024/01/30 01:38:43;;;;;;;;;;;;;;;15.74;61.01;100473.09;2087628;28;20019;-68
2024/01/30 01:39:44;;;;;;;;;;;;;;;15.73;61.06;100465.19;2089807;28;19956;-68
2024/01/30 01:40:45;;;;;;;;;;;;;;;15.73;60.98;100468.72;2087462;28;19928;-68
2024/01/30 01:41:47;;;;;;;;;;;;;;;15.69;61.04;100475.34;2088234;28;19935;-68
2024/01/30 01:42:49;;;;;;;;;;;;;;;15.72;61.03;100474.22;2088569;28;19994;-69
2024/01/30 01:43:51;;;;;;;;;;;;;;;15.73;60.92;100476.75;2085300;28;19928;-68
2024/01/30 01:44:51;;;;;;;;;;;;;;;15.71;61.13;100468.03;2088167;28;19975;-68
2024/01/30 01:45:53;;;;;;;;;;;;;;;15.71;61.03;100472.50;2090054;28;19928;-68
2024/01/30 01:46:54;;;;;;;;;;;;;;;15.69;61.08;100470.00;2088118;28;19929;-68
2024/01/30 01:47:57;;;;;;;;;;;;;;;15.69;61.03;100472.69;2086293;28;19928;-68
2024/01/30 01:48:58;;;;;;;;;;;;;;;15.69;61.04;100475.34;2087581;28;20002;-68
2024/01/30 01:50:00;;;;;;;;;;;;;;;15.69;61.00;100464.66;2082844;28;19933;-68
2024/01/30 01:51:01;;;;;;;;;;;;;;;15.68;61.08;100470.09;2088602;28;19964;-67
2024/01/30 01:52:03;;;;;;;;;;;;;;;15.71;61.04;100467.16;2088586;28;19999;-68
2024/01/30 01:53:05;;;;;;;;;;;;;;;15.68;60.89;100467.41;2087421;28;20024;-68
2024/01/30 01:54:07;;;;;;;;;;;;;;;15.68;61.02;100468.28;2089249;28;19940;-68
2024/01/30 01:55:07;;;;;;;;;;;;;;;15.66;61.16;100464.91;2088461;28;19978;-68
2024/01/30 01:56:08;;;;;;;;;;;;;;;15.65;61.26;100460.50;2087572;28;20748;-68
2024/01/30 01:57:10;;;;;;;;;;;;;;;15.68;61.08;100472.75;2085523;28;19956;-68
2024/01/30 01:58:12;;;;;;;;;;;;;;;15.68;61.03;100468.28;2088104;28;20837;-68
2024/01/30 01:59:14;;;;;;;;;;;;;;;15.69;60.89;100467.31;2086742;28;20028;-68
2024/01/30 02:00:15;;;;;;;;;;;;;;;15.69;60.93;100474.50;2086992;28;19932;-68
2024/01/30 02:01:17;;;;;;;;;;;;;;;15.68;60.89;100462.94;2089832;28;19928;-68
2024/01/30 02:02:19;;;;;;;;;;;;;;;15.66;61.00;100467.56;2089384;28;20565;-68
2024/01/30 02:03:22;;;;;;;;;;;;;;;15.68;60.92;100468.28;2087964;28;20505;-69
2024/01/30 02:04:23;;;;;;;;;;;;;;;15.67;61.00;100471.94;2088995;28;19956;-68
2024/01/30 02:05:26;;;;;;;;;;;;;;;15.67;60.98;100474.59;2090799;28;19928;-68
2024/01/30 02:06:27;;;;;;;;;;;;;;;15.65;61.10;100473.88;2078594;28;20031;-68
2024/01/30 02:07:29;;;;;;;;;;;;;;;15.64;61.10;100465.03;2087729;28;19928;-69
2024/01/30 02:08:30;;;;;;;;;;;;;;;15.61;61.24;100467.16;2088396;28;19924;-68
2024/01/30 02:09:32;;;;;;;;;;;;;;;15.61;61.10;100470.66;2088517;28;19924;-68
2024/01/30 02:10:33;;;;;;;;;;;;;;;15.64;61.09;100470.38;2087495;28;20420;-68
2024/01/30 02:11:35;;;;;;;;;;;;;;;15.63;61.06;100459.84;2089913;28;19925;-68
2024/01/30 02:12:35;;;;;;;;;;;;;;;15.62;61.03;100466.97;2086628;28;19963;-67
2024/01/30 02:13:36;;;;;;;;;;;;;;;15.63;61.08;100466.03;2089542;28;20296;-68
2024/01/30 02:14:45;;;;;;;;;;;;;;;15.58;61.15;100467.44;2085793;28;19933;-67
2024/01/30 02:15:49;;;;;;;;;;;;;;;15.59;61.11;100463.75;2086529;28;20496;-68
2024/01/30 02:16:50;;;;;;;;;;;;;;;15.62;61.01;100463.47;2089401;28;20028;-67
2024/01/30 02:17:51;;;;;;;;;;;;;;;15.63;61.04;100466.03;2090092;28;19924;-68
2024/01/30 02:18:54;;;;;;;;;;;;;;;15.63;61.03;100457.16;2088630;28;19935;-67
2024/01/30 02:19:55;;;;;;;;;;;;;;;15.63;61.01;100457.16;2089162;28;19979;-69
2024/01/30 02:20:56;;;;;;;;;;;;;;;15.60;61.13;100458.28;2087439;28;19932;-67
2024/01/30 02:22:00;;;;;;;;;;;;;;;15.60;61.17;100458.28;2086034;28;19951;-69
2024/01/30 02:23:01;;;;;;;;;;;;;;;15.59;61.06;100453.06;2089573;28;19980;-68
2024/01/30 02:24:04;;;;;;;;;;;;;;;15.62;61.01;100458.13;2090208;28;19928;-68
2024/01/30 02:25:04;;;;;;;;;;;;;;;15.60;61.10;100454.72;2077977;28;19956;-69
2024/01/30 02:26:06;;;;;;;;;;;;;;;15.60;61.06;100455.59;2085939;28;19936;-68
2024/01/30 02:27:07;;;;;;;;;;;;;;;15.58;61.10;100452.22;2085691;28;19975;-69
2024/01/30 02:28:07;;;;;;;;;;;;;;;15.59;60.99;100456.56;2086572;28;19932;-69
2024/01/30 02:29:11;;;;;;;;;;;;;;;15.58;60.92;100454.06;2084204;28;20230;-68
2024/01/30 02:30:12;;;;;;;;;;;;;;;15.57;61.11;100457.69;2088010;28;20023;-68
2024/01/30 02:31:14;;;;;;;;;;;;;;;15.54;61.12;100458.81;2087182;28;20482;-68
2024/01/30 02:32:15;;;;;;;;;;;;;;;15.54;61.14;100455.28;2088829;28;20412;-67
2024/01/30 02:33:16;;;;;;;;;;;;;;;15.55;61.24;100451.66;2087874;28;19928;-68
2024/01/30 02:34:19;;;;;;;;;;;;;;;15.53;61.17;100453.63;2087676;28;20015;-68
2024/01/30 02:35:20;;;;;;;;;;;;;;;15.53;61.02;100456.28;2087481;28;19935;-68
2024/01/30 02:36:21;;;;;;;;;;;;;;;15.56;61.08;100458.69;2086494;28;19964;-69
2024/01/30 02:37:24;;;;;;;;;;;;;;;15.54;61.14;100455.28;2087745;28;19932;-68
2024/01/30 02:38:26;;;;;;;;;;;;;;;15.53;61.11;100453.63;2089396;28;19929;-68
2024/01/30 02:39:28;;;;;;;;;;;;;;;15.54;61.19;100452.63;2088982;28;19925;-69
2024/01/30 02:40:29;;;;;;;;;;;;;;;15.54;61.11;100457.97;2087238;28;19963;-69
2024/01/30 02:41:30;;;;;;;;;;;;;;;15.53;61.05;100456.28;2084948;28;19932;-68
2024/01/30 02:42:31;;;;;;;;;;;;;;;15.54;61.15;100460.66;2087917;28;19967;-69
2024/01/30 02:43:32;;;;;;;;;;;;;;;15.53;61.19;100456.28;2088399;28;19951;-68
2024/01/30 02:44:34;;;;;;;;;;;;;;;15.51;61.19;100452.91;2066416;28;20019;-69
2024/01/30 02:45:35;;;;;;;;;;;;;;;15.51;61.21;100450.22;2083814;28;19932;-68
2024/01/30 02:46:36;;;;;;;;;;;;;;;15.52;61.15;100452.78;2085948;28;19935;-67
2024/01/30 02:47:37;;;;;;;;;;;;;;;15.53;61.04;100454.47;2087568;28;19935;-68
2024/01/30 02:48:39;;;;;;;;;;;;;;;15.51;61.05;100450.22;2087488;28;20342;-68
2024/01/30 02:49:40;;;;;;;;;;;;;;;15.53;61.04;100448.28;2089195;28;19929;-68
2024/01/30 02:50:41;;;;;;;;;;;;;;;15.55;61.18;100451.66;2086600;28;19925;-68
2024/01/30 02:51:42;;;;;;;;;;;;;;;15.54;61.03;100455.28;2087885;28;19933;-68
2024/01/30 02:52:45;;;;;;;;;;;;;;;15.56;60.99;100451.50;2087488;28;20424;-67
2024/01/30 02:53:46;;;;;;;;;;;;;;;15.51;61.08;100450.22;2088042;28;19939;-68
2024/01/30 02:54:48;;;;;;;;;;;;;;;15.48;61.14;100453.19;2088913;28;19939;-68
2024/01/30 02:55:49;;;;;;;;;;;;;;;15.49;61.10;100450.38;2087184;28;20547;-68
2024/01/30 02:56:51;;;;;;;;;;;;;;;15.52;61.07;100451.94;2088045;28;19935;-68
2024/01/30 02:57:51;;;;;;;;;;;;;;;15.47;61.13;100449.69;2088611;28;20409;-68
2024/01/30 02:58:53;;;;;;;;;;;;;;;15.49;61.07;100446.84;2088048;28;19929;-68
2024/01/30 02:59:54;;;;;;;;;;;;;;;15.52;61.15;100443.91;2087936;28;19982;-67
2024/01/30 03:00:55;;;;;;;;;;;;;;;15.50;61.14;100448.56;2087328;28;19928;-69
2024/01/30 03:01:56;;;;;;;;;;;;;;;15.48;61.09;100447.84;2070892;28;20141;-68
2024/01/30 03:02:58;;;;;;;;;;;;;;;15.48;60.95;100451.34;2084971;28;20295;-67
2024/01/30 03:03:59;;;;;;;;;;;;;;;15.49;61.12;100452.19;2085991;28;20298;-68
2024/01/30 03:05:00;;;;;;;;;;;;;;;15.47;61.12;100443.47;2087704;28;19925;-69
2024/01/30 03:06:01;;;;;;;;;;;;;;;15.45;61.26;100445.44;2087575;28;19975;-68
2024/01/30 03:07:03;;;;;;;;;;;;;;;15.42;61.17;100447.41;2088590;28;19939;-68
2024/01/30 03:08:06;;;;;;;;;;;;;;;15.42;61.18;100450.06;2087786;28;19932;-68
2024/01/30 03:09:07;;;;;;;;;;;;;;;15.46;61.06;100447.13;2089044;28;19928;-68
2024/01/30 03:10:09;;;;;;;;;;;;;;;15.47;61.05;100443.47;2087393;28;20011;-68
2024/01/30 03:11:09;;;;;;;;;;;;;;;15.47;61.07;100446.16;2089353;28;19974;-68
2024/01/30 03:12:11;;;;;;;;;;;;;;;15.45;61.11;100440.94;2087345;28;19932;-68
2024/01/30 03:13:12;;;;;;;;;;;;;;;15.47;61.09;100444.31;2089411;28;19924;-68
2024/01/30 03:14:14;;;;;;;;;;;;;;;15.47;61.03;100435.47;2088104;28;19978;-69
2024/01/30 03:15:14;;;;;;;;;;;;;;;15.48;60.97;100437.97;2089715;28;19963;-68
2024/01/30 03:16:16;;;;;;;;;;;;;;;15.48;61.03;100437.97;2088340;28;19931;-68
2024/01/30 03:17:17;;;;;;;;;;;;;;;15.47;61.03;100438.13;2089336;28;19956;-68
2024/01/30 03:18:19;;;;;;;;;;;;;;;15.45;61.13;100440.94;2086484;28;19936;-68
2024/01/30 03:19:19;;;;;;;;;;;;;;;15.46;61.05;100448.00;2087920;28;19968;-68
2024/01/30 03:20:21;;;;;;;;;;;;;;;15.44;61.07;100446.44;2075717;28;19929;-68
2024/01/30 03:21:22;;;;;;;;;;;;;;;15.43;61.16;100437.53;2087529;28;19959;-68
2024/01/30 03:22:24;;;;;;;;;;;;;;;15.42;60.99;100442.06;2084354;28;19929;-68
2024/01/30 03:23:26;;;;;;;;;;;;;;;15.43;61.10;100442.91;2089656;28;21238;-68
2024/01/30 03:24:27;;;;;;;;;;;;;;;15.43;61.05;100442.91;2086392;28;19940;-68
2024/01/30 03:25:28;;;;;;;;;;;;;;;15.44;61.08;100435.75;2087058;28;19978;-69
2024/01/30 03:26:30;;;;;;;;;;;;;;;15.40;61.22;100432.47;2087834;28;19932;-68
2024/01/30 03:27:31;;;;;;;;;;;;;;;15.40;61.11;100441.34;2086443;28;19940;-68
2024/01/30 03:28:31;;;;;;;;;;;;;;;15.35;61.29;100435.59;2088278;28;19967;-68
2024/01/30 03:29:33;;;;;;;;;;;;;;;15.36;61.29;100431.91;2087005;28;19933;-67
2024/01/30 03:30:34;;;;;;;;;;;;;;;15.40;61.09;100437.81;2087481;28;20641;-69
2024/01/30 03:31:36;;;;;;;;;;;;;;;15.39;61.16;100437.00;2088227;28;20067;-68
2024/01/30 03:32:37;;;;;;;;;;;;;;;15.36;61.20;100437.28;2086298;28;20177;-68
2024/01/30 03:33:39;;;;;;;;;;;;;;;15.38;61.19;100438.00;2083005;28;20592;-68
2024/01/30 03:34:39;;;;;;;;;;;;;;;15.36;61.14;100434.59;2088451;28;19955;-68
2024/01/30 03:35:41;;;;;;;;;;;;;;;15.35;61.19;100435.59;2088571;28;19925;-68
2024/01/30 03:36:42;;;;;;;;;;;;;;;15.37;61.31;100432.75;2088706;28;19928;-68
2024/01/30 03:37:44;;;;;;;;;;;;;;;15.34;61.34;100433.03;2088988;28;19932;-68
2024/01/30 03:38:46;;;;;;;;;;;;;;;15.31;61.35;100433.31;2076296;28;20219;-68
2024/01/30 03:39:47;;;;;;;;;;;;;;;15.36;61.23;100437.28;2086108;28;20304;-69
2024/01/30 03:40:48;;;;;;;;;;;;;;;15.34;61.17;100431.22;2085863;28;20323;-68
2024/01/30 03:41:49;;;;;;;;;;;;;;;15.32;61.38;100433.19;2088360;28;19929;-68
2024/01/30 03:42:51;;;;;;;;;;;;;;;15.33;61.36;100436.72;2088373;28;19970;-68
2024/01/30 03:43:51;;;;;;;;;;;;;;;15.35;61.28;100435.59;2087164;28;19975;-68
2024/01/30 03:44:53;;;;;;;;;;;;;;;15.32;61.23;100432.31;2083504;28;20307;-68
2024/01/30 03:45:54;;;;;;;;;;;;;;;15.34;61.36;100438.38;2088295;28;19977;-68
2024/01/30 03:46:55;;;;;;;;;;;;;;;15.33;61.20;100436.72;2087001;28;21092;-74
2024/01/30 03:47:56;;;;;;;;;;;;;;;15.33;61.28;100440.22;2087079;28;19972;-67
2024/01/30 03:48:58;;;;;;;;;;;;;;;15.33;61.22;100434.88;2085702;28;20801;-67
2024/01/30 03:49:59;;;;;;;;;;;;;;;15.31;61.19;100434.16;2087501;28;20540;-67
2024/01/30 03:51:00;;;;;;;;;;;;;;;15.31;61.27;100434.16;2086339;28;19932;-68
2024/01/30 03:52:01;;;;;;;;;;;;;;;15.33;61.13;100436.72;2089311;28;19971;-68
2024/01/30 03:53:02;;;;;;;;;;;;;;;15.30;61.27;100432.47;2087185;28;20036;-68
2024/01/30 03:54:05;;;;;;;;;;;;;;;15.30;61.30;100431.66;2088497;28;19993;-68
2024/01/30 03:55:06;;;;;;;;;;;;;;;15.30;61.34;100427.13;2087419;28;20079;-68
2024/01/30 03:56:08;;;;;;;;;;;;;;;15.29;61.24;100436.13;2068710;28;19932;-69
2024/01/30 03:57:09;;;;;;;;;;;;;;;15.29;61.35;100436.13;2082204;28;19932;-69
2024/01/30 03:58:10;;;;;;;;;;;;;;;15.29;61.33;100429.94;2086181;28;19960;-68
2024/01/30 03:59:11;;;;;;;;;;;;;;;15.28;61.26;100429.09;2089642;28;19971;-68
2024/01/30 04:00:14;;;;;;;;;;;;;;;15.26;61.36;100431.06;2087835;28;20387;-68
2024/01/30 04:01:14;;;;;;;;;;;;;;;15.25;61.38;100424.03;2089343;28;19928;-68
2024/01/30 04:02:17;;;;;;;;;;;;;;;15.27;61.39;100426.56;2087594;28;20308;-69
2024/01/30 04:03:18;;;;;;;;;;;;;;;15.27;61.17;100432.75;2089225;28;19928;-68
2024/01/30 04:04:20;;;;;;;;;;;;;;;15.25;61.39;100434.72;2087835;28;20018;-68
2024/01/30 04:05:21;;;;;;;;;;;;;;;15.22;61.39;100424.31;2089322;28;20467;-68
2024/01/30 04:06:22;;;;;;;;;;;;;;;15.23;61.46;100433.16;2088328;28;19924;-68
2024/01/30 04:07:23;;;;;;;;;;;;;;;15.25;61.37;100428.53;2090606;28;20384;-68
2024/01/30 04:08:24;;;;;;;;;;;;;;;15.25;61.37;100429.38;2088572;28;19925;-68
2024/01/30 04:09:28;;;;;;;;;;;;;;;15.26;61.33;100432.88;2090095;28;19972;-68
2024/01/30 04:10:29;;;;;;;;;;;;;;;15.25;61.40;100424.03;2087892;28;20905;-67
2024/01/30 04:11:30;;;;;;;;;;;;;;;15.26;61.29;100431.06;2090158;28;20019;-68
2024/01/30 04:12:31;;;;;;;;;;;;;;;15.25;61.28;100434.72;2090200;28;20359;-68
2024/01/30 04:13:33;;;;;;;;;;;;;;;15.25;61.25;100424.03;2068481;28;19940;-69
2024/01/30 04:14:35;;;;;;;;;;;;;;;15.24;61.35;100429.50;2086896;28;19928;-68
2024/01/30 04:15:37;;;;;;;;;;;;;;;15.23;61.42;100435.84;2088235;28;19929;-68
2024/01/30 04:16:38;;;;;;;;;;;;;;;15.25;61.27;100431.22;2089631;28;19963;-69
2024/01/30 04:17:39;;;;;;;;;;;;;;;15.27;60.94;100427.41;2087747;28;19932;-69
2024/01/30 04:18:40;;;;;;;;;;;;;;;15.26;61.27;100431.06;2089697;28;19972;-70
2024/01/30 04:19:42;;;;;;;;;;;;;;;15.23;61.48;100430.50;2088041;28;19987;-67
2024/01/30 04:20:42;;;;;;;;;;;;;;;15.24;61.21;100430.38;2089457;28;19932;-68
2024/01/30 04:21:44;;;;;;;;;;;;;;;15.26;61.24;100430.22;2089788;28;19970;-68
2024/01/30 04:22:45;;;;;;;;;;;;;;;15.24;61.32;100427.69;2088121;28;19925;-68
2024/01/30 04:23:48;;;;;;;;;;;;;;;15.24;61.29;100432.16;2089053;28;19936;-68
2024/01/30 04:24:50;;;;;;;;;;;;;;;15.21;61.33;100422.63;2088145;28;20322;-68
2024/01/30 04:25:52;;;;;;;;;;;;;;;15.22;61.30;100429.66;2090115;28;20402;-68
2024/01/30 04:26:52;;;;;;;;;;;;;;;15.20;61.37;100439.63;2089137;28;19943;-68
2024/01/30 04:27:53;;;;;;;;;;;;;;;15.22;61.30;100434.16;2089194;28;19924;-68
2024/01/30 04:28:55;;;;;;;;;;;;;;;15.19;61.33;100432.59;2089992;28;19925;-68
2024/01/30 04:29:55;;;;;;;;;;;;;;;15.20;61.32;100442.31;2088079;28;20031;-67
2024/01/30 04:30:56;;;;;;;;;;;;;;;15.18;61.19;100436.25;2088746;28;19931;-68
2024/01/30 04:31:58;;;;;;;;;;;;;;;15.19;61.35;100443.28;2082620;28;20573;-68
2024/01/30 04:32:59;;;;;;;;;;;;;;;15.21;61.21;100433.31;2088365;28;20521;-68
2024/01/30 04:34:00;;;;;;;;;;;;;;;15.20;61.24;100436.97;2087276;28;19933;-68
2024/01/30 04:35:01;;;;;;;;;;;;;;;15.18;61.35;100438.91;2089650;28;19982;-68
2024/01/30 04:36:03;;;;;;;;;;;;;;;15.18;61.33;100433.56;2087785;28;19972;-67
2024/01/30 04:37:05;;;;;;;;;;;;;;;15.20;61.25;100435.13;2088081;28;19932;-67
2024/01/30 04:38:06;;;;;;;;;;;;;;;15.19;61.22;100432.59;2088123;28;19991;-68
2024/01/30 04:39:08;;;;;;;;;;;;;;;15.18;61.25;100437.13;2090164;28;19957;-69
2024/01/30 04:40:11;;;;;;;;;;;;;;;15.20;61.18;100443.16;2087329;28;20306;-68
2024/01/30 04:41:12;;;;;;;;;;;;;;;15.17;61.20;100439.91;2086324;28;20002;-68
2024/01/30 04:42:13;;;;;;;;;;;;;;;15.16;61.31;100438.22;2089110;28;19936;-68
2024/01/30 04:43:15;;;;;;;;;;;;;;;15.18;61.14;100438.91;2083907;28;20019;-67
2024/01/30 04:44:16;;;;;;;;;;;;;;;15.19;61.15;100438.78;2088630;28;19959;-67
2024/01/30 04:45:18;;;;;;;;;;;;;;;15.16;61.17;100432.88;2077507;28;20474;-68
2024/01/30 04:46:18;;;;;;;;;;;;;;;15.15;61.25;100440.03;2086565;28;19955;-68
2024/01/30 04:47:20;;;;;;;;;;;;;;;15.15;61.30;100441.88;2085829;28;20455;-68
2024/01/30 04:48:21;;;;;;;;;;;;;;;15.14;61.25;100437.50;2087986;28;19951;-69
2024/01/30 04:49:26;;;;;;;;;;;;;;;15.14;61.34;100437.50;2090273;28;19974;-68
2024/01/30 04:50:27;;;;;;;;;;;;;;;15.13;61.43;100439.34;2089131;28;19928;-68
2024/01/30 04:51:29;;;;;;;;;;;;;;;15.13;61.34;100438.50;2087182;28;19929;-68
2024/01/30 04:52:30;;;;;;;;;;;;;;;15.12;61.26;100434.13;2085403;28;19940;-68
2024/01/30 04:53:32;;;;;;;;;;;;;;;15.10;61.58;100438.75;2088671;28;19928;-68
2024/01/30 04:54:33;;;;;;;;;;;;;;;15.11;61.36;100432.44;2086506;28;19932;-68
2024/01/30 04:55:36;;;;;;;;;;;;;;;15.13;61.35;100435.84;2087258;28;19932;-68
2024/01/30 04:56:36;;;;;;;;;;;;;;;15.14;61.22;100435.69;2088723;28;19935;-68
2024/01/30 04:57:37;;;;;;;;;;;;;;;15.13;61.32;100436.66;2086732;28;20618;-67
2024/01/30 04:58:39;;;;;;;;;;;;;;;15.12;61.25;100434.97;2090456;28;19959;-68
2024/01/30 04:59:40;;;;;;;;;;;;;;;15.09;61.36;100437.91;2090268;28;19960;-68
2024/01/30 05:00:40;;;;;;;;;;;;;;;15.12;61.35;100431.44;2088634;28;19928;-68
2024/01/30 05:01:42;;;;;;;;;;;;;;;15.11;61.42;100437.78;2090114;28;20419;-69
2024/01/30 05:02:43;;;;;;;;;;;;;;;15.13;61.06;100436.66;2088963;28;20513;-68
2024/01/30 05:03:45;;;;;;;;;;;;;;;15.11;61.23;100437.78;2087668;28;19928;-68
2024/01/30 05:04:45;;;;;;;;;;;;;;;15.07;61.33;100436.34;2084711;28;19968;-68
2024/01/30 05:05:47;;;;;;;;;;;;;;;15.08;61.47;100438.06;2091513;28;19929;-68
2024/01/30 05:06:48;;;;;;;;;;;;;;;15.09;61.39;100442.41;2090499;28;19928;-68
2024/01/30 05:07:49;;;;;;;;;;;;;;;15.06;61.40;100438.19;2089253;28;20501;-68
2024/01/30 05:08:51;;;;;;;;;;;;;;;15.08;61.41;100438.06;2088219;28;20030;-68
2024/01/30 05:09:51;;;;;;;;;;;;;;;15.05;61.42;100439.19;2089353;28;19928;-68
2024/01/30 05:10:55;;;;;;;;;;;;;;;15.06;61.39;100432.00;2090574;28;19931;-68
2024/01/30 05:11:55;;;;;;;;;;;;;;;15.06;61.50;100437.34;2089059;28;19968;-67
2024/01/30 05:12:57;;;;;;;;;;;;;;;15.05;61.41;100433.00;2089445;28;19933;-67
2024/01/30 05:13:58;;;;;;;;;;;;;;;15.05;61.42;100441.84;2079496;28;25725;-68
2024/01/30 05:14:59;;;;;;;;;;;;;;;15.06;61.25;100445.38;2088636;28;19929;-68